Time;durP1;ratioP1;P1;durP2;ratioP2;P2;SDS_P1;SDS_P2;PMS_P1;PMS_P2;Temp;Humidity;BMP_temperature;BMP_pressure;BME280_temperature;BME280_humidity;BME280_pressure;Samples;Min_cycle;Max_cycle;Signal;HPM_P1;HPM_P2
2023/04/06 00:02:10;;;;;;;51.95;23.60;;;;;;;10.01;47.49;101875.78;5084728;28;20112;-40
2023/04/06 00:04:36;;;;;;;50.22;23.45;;;;;;;10.06;46.77;101876.84;5082212;28;20028;-41
2023/04/06 00:07:01;;;;;;;45.95;22.52;;;;;;;10.14;46.45;101876.22;5085795;28;20039;-40
2023/04/06 00:09:26;;;;;;;44.10;22.90;;;;;;;10.00;46.61;101869.69;5084642;28;20055;-42
2023/04/06 00:11:52;;;;;;;45.80;22.10;;;;;;;9.80;47.30;101869.91;5080435;28;20417;-42
2023/04/06 00:14:17;;;;;;;44.40;21.27;;;;;;;9.95;46.60;101871.28;5086398;28;20123;-41
2023/04/06 00:16:42;;;;;;;43.60;21.45;;;;;;;10.23;46.15;101867.88;5079351;28;20028;-40
2023/04/06 00:19:08;;;;;;;39.35;20.50;;;;;;;10.10;46.38;101863.97;5084390;28;20035;-40
2023/04/06 00:21:33;;;;;;;39.80;20.58;;;;;;;10.22;45.97;101865.19;5085447;28;20043;-40
2023/04/06 00:23:58;;;;;;;37.58;19.60;;;;;;;10.06;45.53;101853.41;5081095;28;20483;-42
2023/04/06 00:26:24;;;;;;;40.38;20.77;;;;;;;9.93;45.76;101853.84;5083339;28;20024;-41
2023/04/06 00:28:51;;;;;;;36.95;19.58;;;;;;;9.88;46.18;101848.47;5080493;28;20100;-41
2023/04/06 00:31:17;;;;;;;35.85;19.05;;;;;;;10.11;45.44;101851.81;5084414;28;20441;-44
2023/04/06 00:33:42;;;;;;;41.60;19.48;;;;;;;9.84;46.03;101841.41;5079615;28;20031;-42
2023/04/06 00:36:07;;;;;;;38.22;18.73;;;;;;;9.82;46.13;101840.47;5086600;28;20035;-43
2023/04/06 00:38:33;;;;;;;38.00;19.15;;;;;;;9.79;46.51;101837.78;5081802;22;20385;-74
2023/04/06 00:41:04;;;;;;;38.85;19.13;;;;;;;9.65;46.39;101837.34;5093755;27;20570;-74
2023/04/06 00:43:29;;;;;;;40.78;18.33;;;;;;;9.87;45.75;101830.22;5100401;28;20551;-74
2023/04/06 00:45:55;;;;;;;36.63;18.27;;;;;;;9.84;46.07;101825.78;5095278;28;20115;-74
2023/04/06 00:48:23;;;;;;;35.58;18.10;;;;;;;9.67;46.51;101830.47;5100346;28;20024;-74
2023/04/06 00:50:49;;;;;;;31.27;16.90;;;;;;;10.00;45.56;101825.41;5075595;22;20040;-44
2023/04/06 00:53:14;;;;;;;35.78;17.20;;;;;;;9.84;45.65;101817.97;5066637;28;20031;-46
2023/04/06 00:55:39;;;;;;;33.47;17.17;;;;;;;9.75;45.94;101817.69;5062416;28;20036;-44
2023/04/06 00:58:05;;;;;;;36.85;17.35;;;;;;;9.87;45.59;101812.88;5067594;28;20031;-47
2023/04/06 01:00:31;;;;;;;31.13;16.83;;;;;;;9.78;45.57;101810.84;5067628;28;20047;-46
2023/04/06 01:02:57;;;;;;;35.55;16.88;;;;;;;9.72;45.16;101813.25;5064214;28;20033;-45
2023/04/06 01:05:22;;;;;;;32.55;16.10;;;;;;;10.18;44.68;101810.38;5067866;28;20119;-44
2023/04/06 01:07:47;;;;;;;30.10;16.45;;;;;;;9.96;45.57;101805.31;5064411;28;20036;-43
2023/04/06 01:10:23;;;;;;;28.10;15.60;;;;;;;9.90;45.37;101801.66;5068465;28;20490;-46
2023/04/06 01:12:49;;;;;;;30.52;16.40;;;;;;;9.82;45.62;101806.59;5062929;28;20036;-48
2023/04/06 01:15:15;;;;;;;28.65;16.15;;;;;;;9.75;45.62;101799.47;5066505;28;20020;-45
2023/04/06 01:17:41;;;;;;;32.75;16.38;;;;;;;10.11;44.83;101789.28;5062720;28;20056;-45
2023/04/06 01:20:07;;;;;;;29.98;15.80;;;;;;;10.13;44.91;101784.97;5066541;28;20506;-43
2023/04/06 01:22:32;;;;;;;29.48;15.55;;;;;;;9.92;45.00;101784.34;5065593;28;20107;-47
2023/04/06 01:24:57;;;;;;;30.30;16.02;;;;;;;9.85;45.07;101785.88;5062167;28;20033;-50
2023/04/06 01:27:23;;;;;;;30.00;15.57;;;;;;;10.03;45.20;101781.22;5065815;28;20535;-46
2023/04/06 01:29:48;;;;;;;29.73;14.68;;;;;;;9.98;44.81;101769.78;5067647;28;20458;-45
2023/04/06 01:32:13;;;;;;;28.58;15.07;;;;;;;9.86;45.24;101766.81;5066815;28;20032;-44
2023/04/06 01:34:39;;;;;;;27.23;15.07;;;;;;;9.92;45.03;101760.91;5064087;28;20085;-43
2023/04/06 01:37:04;;;;;;;26.42;14.73;;;;;;;9.64;45.50;101769.59;5078885;28;20028;-47
2023/04/06 01:39:30;;;;;;;28.25;15.30;;;;;;;9.87;45.06;101758.19;5087547;28;20032;-42
2023/04/06 01:41:55;;;;;;;26.38;14.43;;;;;;;9.92;45.42;101761.81;5082290;28;20225;-45
2023/04/06 01:44:21;;;;;;;29.52;14.80;;;;;;;9.93;45.07;101752.28;5084986;28;20089;-46
2023/04/06 01:46:46;;;;;;;29.83;15.23;;;;;;;10.01;45.01;101755.97;5081544;28;20128;-45
2023/04/06 01:49:12;;;;;;;26.65;14.57;;;;;;;9.83;45.21;101748.47;5066727;28;20028;-43
2023/04/06 01:51:37;;;;;;;26.48;14.45;;;;;;;9.82;45.41;101746.72;5081585;28;20061;-47
2023/04/06 01:54:03;;;;;;;28.90;15.02;;;;;;;10.23;44.54;101747.97;5084875;28;20035;-44
2023/04/06 01:56:28;;;;;;;28.17;15.60;;;;;;;9.79;45.46;101741.44;5085034;28;20534;-46
2023/04/06 01:58:53;;;;;;;26.73;14.93;;;;;;;10.01;45.35;101736.00;5064277;28;20035;-45
2023/04/06 02:01:19;;;;;;;27.65;14.88;;;;;;;9.88;45.14;101736.47;5086247;28;20020;-44
2023/04/06 02:03:44;;;;;;;27.15;14.73;;;;;;;10.26;44.53;101735.03;5081253;28;20173;-43
2023/04/06 02:06:10;;;;;;;29.88;15.23;;;;;;;10.10;44.76;101728.47;5085692;28;20028;-46
2023/04/06 02:08:35;;;;;;;28.30;15.18;;;;;;;10.16;44.84;101728.69;5082600;28;20409;-44
2023/04/06 02:11:00;;;;;;;27.83;14.82;;;;;;;10.25;44.99;101725.44;5084917;28;20043;-45
2023/04/06 02:13:26;;;;;;;28.63;15.38;;;;;;;10.15;44.75;101734.69;5084384;28;20562;-42
2023/04/06 02:15:51;;;;;;;30.38;15.55;;;;;;;10.07;45.24;101722.28;5063012;28;20035;-47
2023/04/06 02:18:18;;;;;;;29.35;15.75;;;;;;;9.96;45.03;101721.97;5084408;28;20129;-46
2023/04/06 02:20:44;;;;;;;28.35;15.05;;;;;;;10.00;44.93;101716.00;5080403;28;20117;-43
2023/04/06 02:23:09;;;;;;;30.75;15.27;;;;;;;9.96;45.50;101721.09;5083851;28;20421;-47
2023/04/06 02:25:35;;;;;;;28.80;15.80;;;;;;;9.99;45.05;101714.25;5080904;28;20035;-46
2023/04/06 02:28:00;;;;;;;27.38;15.50;;;;;;;10.06;45.28;101710.97;5066940;28;20043;-45
2023/04/06 02:30:26;;;;;;;27.70;15.57;;;;;;;10.07;45.33;101711.84;5085084;28;20498;-43
2023/04/06 02:32:51;;;;;;;29.30;15.80;;;;;;;10.29;44.81;101711.66;5081217;28;20036;-44
2023/04/06 02:35:16;;;;;;;31.63;16.63;;;;;;;10.27;45.33;101704.63;5084706;28;20052;-45
2023/04/06 02:37:42;;;;;;;26.92;15.20;;;;;;;10.09;45.72;101711.06;5080886;28;20082;-43
2023/04/06 02:40:08;;;;;;;27.02;15.23;;;;;;;9.97;45.94;101699.41;5084811;28;20115;-50
2023/04/06 02:42:34;;;;;;;30.00;15.57;;;;;;;10.05;45.88;101700.53;5081235;28;20059;-56
2023/04/06 02:45:00;;;;;;;30.42;16.13;;;;;;;10.20;45.70;101698.38;5083216;28;20042;-46
2023/04/06 02:47:25;;;;;;;28.17;15.35;;;;;;;10.00;45.72;101692.56;5084132;28;20036;-46
2023/04/06 02:49:51;;;;;;;29.08;15.68;;;;;;;10.18;45.83;101691.38;5079832;28;20119;-42
2023/04/06 02:52:17;;;;;;;27.33;15.35;;;;;;;10.21;45.15;101689.72;5084398;28;20062;-44
2023/04/06 02:54:43;;;;;;;29.13;15.60;;;;;;;10.36;45.00;101691.88;5080360;28;20040;-42
2023/04/06 02:57:08;;;;;;;28.23;15.75;;;;;;;10.22;45.52;101685.38;5084319;28;20036;-44
2023/04/06 02:59:33;;;;;;;27.10;15.10;;;;;;;10.10;45.64;101681.56;5079811;28;20085;-46
2023/04/06 03:01:59;;;;;;;31.25;15.73;;;;;;;10.13;45.37;101678.16;5083997;28;20903;-46
2023/04/06 03:04:25;;;;;;;29.38;16.17;;;;;;;10.37;45.45;101684.06;5083955;28;20034;-47
2023/04/06 03:06:51;;;;;;;35.28;15.98;;;;;;;10.01;45.84;101680.41;5079376;28;20044;-50
2023/04/06 03:09:16;;;;;;;29.85;15.88;;;;;;;10.19;45.26;101678.34;5083105;28;20039;-45
2023/04/06 03:11:41;;;;;;;29.48;15.70;;;;;;;9.85;46.44;101673.91;5079947;28;20070;-44
2023/04/06 03:14:06;;;;;;;30.58;15.60;;;;;;;10.06;46.56;101673.63;5083382;28;20028;-44
2023/04/06 03:16:32;;;;;;;29.50;16.38;;;;;;;9.86;46.23;101673.06;5083202;28;20127;-48
2023/04/06 03:18:57;;;;;;;32.00;15.75;;;;;;;10.04;46.15;101664.88;5079191;28;20086;-45
2023/04/06 03:21:22;;;;;;;32.13;16.17;;;;;;;10.35;45.72;101671.84;5083721;28;20091;-44
2023/04/06 03:23:50;;;;;;;35.50;16.13;;;;;;;10.42;45.11;101666.84;5079241;28;20498;-43
2023/04/06 03:26:16;;;;;;;30.35;15.50;;;;;;;10.62;45.08;101662.13;5082995;28;20040;-47
2023/04/06 03:28:41;;;;;;;31.42;15.93;;;;;;;10.55;45.08;101660.25;5079333;28;20059;-44
2023/04/06 03:31:06;;;;;;;30.35;15.93;;;;;;;10.52;44.59;101665.38;5083923;28;20165;-45
2023/04/06 03:33:32;;;;;;;29.73;15.60;;;;;;;10.68;44.28;101662.28;5083124;28;20064;-46
2023/04/06 03:35:57;;;;;;;32.92;16.08;;;;;;;10.69;44.33;101656.25;5078991;28;20486;-44
2023/04/06 03:38:22;;;;;;;31.58;16.13;;;;;;;10.74;43.88;101659.84;5064558;28;20055;-47
2023/04/06 03:40:48;;;;;;;29.10;15.45;;;;;;;10.77;44.11;101649.50;5080019;28;20109;-44
2023/04/06 03:43:13;;;;;;;28.35;15.30;;;;;;;10.79;43.77;101646.94;5082738;28;20032;-44
2023/04/06 03:45:38;;;;;;;31.10;15.48;;;;;;;10.87;43.65;101648.88;5079430;28;20032;-46
2023/04/06 03:48:05;;;;;;;30.70;15.93;;;;;;;10.84;43.59;101646.19;5082953;28;20119;-44
2023/04/06 03:50:30;;;;;;;30.73;15.45;;;;;;;10.79;43.75;101646.94;5082973;28;20044;-43
2023/04/06 03:52:56;;;;;;;31.15;15.77;;;;;;;10.91;44.05;101649.84;5060673;28;20490;-44
2023/04/06 03:55:21;;;;;;;33.72;15.45;;;;;;;10.85;43.99;101644.47;5082806;28;20367;-45
2023/04/06 03:57:46;;;;;;;32.40;16.02;;;;;;;10.93;44.07;101642.91;5077417;28;20405;-41
2023/04/06 04:00:12;;;;;;;29.45;14.90;;;;;;;10.82;44.19;101647.88;5082489;28;20032;-44
2023/04/06 04:02:38;;;;;;;31.10;15.32;;;;;;;10.76;44.36;101646.84;5078891;28;20034;-48
2023/04/06 04:05:03;;;;;;;29.85;15.43;;;;;;;10.94;44.03;101647.28;5082642;28;20478;-48
2023/04/06 04:07:29;;;;;;;30.30;15.55;;;;;;;10.96;44.02;101645.63;5082633;28;20089;-44
2023/04/06 04:09:54;;;;;;;34.55;15.30;;;;;;;11.00;43.43;101647.44;5078936;28;20032;-47
2023/04/06 04:12:20;;;;;;;29.40;15.48;;;;;;;10.95;43.66;101639.50;5083099;28;20111;-47
2023/04/06 04:14:45;;;;;;;30.67;16.15;;;;;;;10.86;43.64;101639.28;5078523;28;20648;-45
2023/04/06 04:17:10;;;;;;;29.75;14.93;;;;;;;10.95;43.83;101636.91;5063364;28;20036;-44
2023/04/06 04:19:35;;;;;;;31.85;16.35;;;;;;;10.98;43.39;101638.69;5078821;28;20462;-43
2023/04/06 04:22:04;;;;;;;35.90;16.60;;;;;;;11.05;43.23;101639.72;5081689;28;20032;-43
2023/04/06 04:24:29;;;;;;;32.17;16.33;;;;;;;10.97;43.68;101643.06;5081733;28;20148;-43
2023/04/06 04:26:55;;;;;;;31.48;16.13;;;;;;;11.02;43.37;101639.66;5080914;28;20043;-44
2023/04/06 04:29:22;;;;;;;30.05;16.08;;;;;;;11.01;43.71;101643.09;5084647;28;20530;-45
2023/04/06 04:31:47;;;;;;;34.08;16.67;;;;;;;10.99;43.53;101641.34;5080700;28;20080;-45
2023/04/06 04:34:14;;;;;;;32.38;16.42;;;;;;;11.04;43.54;101643.19;5066250;28;20118;-47
2023/04/06 04:36:41;;;;;;;32.50;16.58;;;;;;;11.10;43.71;101640.72;5079787;28;20089;-45
2023/04/06 04:39:07;;;;;;;34.55;17.20;;;;;;;11.03;43.92;101637.09;5082763;28;20036;-44
2023/04/06 04:41:33;;;;;;;30.85;16.42;;;;;;;11.02;43.92;101645.75;5080492;28;20629;-46
2023/04/06 04:43:58;;;;;;;31.50;16.67;;;;;;;11.01;43.80;101640.50;5080979;28;20490;-44
2023/04/06 04:46:23;;;;;;;37.63;17.90;;;;;;;10.98;44.75;101643.91;5065512;28;20043;-46
2023/04/06 04:48:49;;;;;;;37.38;17.90;;;;;;;11.08;44.09;101634.59;5080114;28;20084;-46
2023/04/06 04:51:15;;;;;;;35.85;17.80;;;;;;;11.07;44.54;101636.31;5082648;28;20125;-43
2023/04/06 04:53:40;;;;;;;37.42;18.23;;;;;;;10.96;45.12;101643.00;5079126;28;20085;-46
2023/04/06 04:56:05;;;;;;;35.97;18.52;;;;;;;11.08;45.14;101627.66;5082274;28;20032;-45
2023/04/06 04:58:31;;;;;;;39.05;18.48;;;;;;;11.03;45.45;101639.72;5081617;28;20704;-45
2023/04/06 05:00:56;;;;;;;35.22;18.77;;;;;;;11.04;45.74;101638.84;5077865;28;20024;-50
2023/04/06 05:03:23;;;;;;;37.97;19.15;;;;;;;10.89;45.98;101636.75;5081176;28;20036;-45
2023/04/06 05:05:49;;;;;;;39.50;20.10;;;;;;;11.02;45.81;101637.94;5078464;28;20039;-44
2023/04/06 05:08:14;;;;;;;37.17;19.98;;;;;;;11.10;45.77;101638.97;5082195;28;20397;-44
2023/04/06 05:10:40;;;;;;;38.60;19.50;;;;;;;11.01;46.45;101630.06;5078630;28;20131;-49
2023/04/06 05:13:05;;;;;;;37.70;20.70;;;;;;;11.07;46.13;101632.81;5083160;28;20062;-43
2023/04/06 05:15:31;;;;;;;42.63;20.10;;;;;;;11.13;46.21;101630.34;5084166;28;20028;-47
2023/04/06 05:17:56;;;;;;;40.78;20.42;;;;;;;11.18;46.84;101631.34;5081411;28;20032;-42
2023/04/06 05:20:22;;;;;;;39.30;20.20;;;;;;;11.14;46.66;101630.41;5084022;28;20119;-45
2023/04/06 05:22:47;;;;;;;44.03;20.92;;;;;;;11.07;47.40;101619.78;5080963;28;20058;-45
2023/04/06 05:25:13;;;;;;;44.88;20.73;;;;;;;11.11;47.43;101627.69;5084392;28;20054;-46
2023/04/06 05:27:39;;;;;;;42.40;21.10;;;;;;;11.21;47.00;101626.19;5079983;28;20489;-44
2023/04/06 05:30:06;;;;;;;45.83;21.05;;;;;;;11.10;47.60;101623.31;5063343;28;20036;-43
2023/04/06 05:32:31;;;;;;;46.15;21.80;;;;;;;10.96;48.19;101617.81;5080973;28;20032;-45
2023/04/06 05:34:56;;;;;;;41.45;21.17;;;;;;;10.92;48.70;101625.50;5077726;28;20024;-44
2023/04/06 05:37:21;;;;;;;43.03;20.80;;;;;;;11.08;48.31;101624.16;5081205;28;20482;-47
2023/04/06 05:39:47;;;;;;;42.72;21.52;;;;;;;11.09;48.19;101618.97;5081035;28;20099;-45
2023/04/06 05:42:12;;;;;;;39.95;21.10;;;;;;;11.17;48.08;101620.00;5085475;28;20032;-45
2023/04/06 05:44:38;;;;;;;41.88;21.85;;;;;;;11.19;48.21;101620.94;5082208;28;20115;-44
2023/04/06 05:47:03;;;;;;;47.05;23.02;;;;;;;11.14;48.81;101619.97;5085094;28;20534;-44
2023/04/06 05:49:28;;;;;;;44.60;23.75;;;;;;;11.21;48.62;101614.03;5084987;28;20036;-46
2023/04/06 05:51:54;;;;;;;45.05;23.77;;;;;;;11.13;49.47;101612.97;5081281;28;20035;-44
2023/04/06 05:54:20;;;;;;;43.63;22.50;;;;;;;11.17;49.35;101619.13;5085723;28;20074;-44
2023/04/06 05:56:45;;;;;;;46.10;23.58;;;;;;;11.01;50.24;101614.41;5081038;28;20062;-47
2023/04/06 05:59:10;;;;;;;45.08;23.50;;;;;;;11.25;49.68;101615.84;5066180;28;20059;-48
2023/04/06 06:01:36;;;;;;;46.63;22.73;;;;;;;11.42;49.71;101617.94;5081600;28;20119;-44
2023/04/06 06:04:01;;;;;;;47.13;23.88;;;;;;;11.47;49.13;101613.69;5066176;28;20050;-51
2023/04/06 06:06:27;;;;;;;45.08;22.83;;;;;;;11.50;49.10;101616.38;5083245;28;20043;-47
2023/04/06 06:08:53;;;;;;;47.15;22.95;;;;;;;11.58;48.95;101612.22;5080796;28;20046;-44
2023/04/06 06:11:18;;;;;;;48.17;25.42;;;;;;;11.56;49.45;101616.50;5085640;28;20039;-47
2023/04/06 06:13:43;;;;;;;51.47;25.23;;;;;;;11.53;49.33;101617.31;5062766;28;20032;-47
2023/04/06 06:16:09;;;;;;;47.67;25.10;;;;;;;11.68;49.13;101611.56;5085461;28;20059;-45
2023/04/06 06:18:34;;;;;;;53.13;25.48;;;;;;;11.76;48.82;101607.41;5080900;28;20030;-45
2023/04/06 06:21:00;;;;;;;51.13;24.75;;;;;;;11.70;48.96;101618.59;5085328;28;20043;-45
2023/04/06 06:23:26;;;;;;;50.72;25.67;;;;;;;11.69;49.31;101608.09;5085474;28;20485;-43
2023/04/06 06:25:51;;;;;;;51.42;24.05;;;;;;;11.81;49.11;101612.72;5081442;28;20043;-44
2023/04/06 06:28:17;;;;;;;55.33;25.25;;;;;;;11.67;49.43;101610.66;5084387;28;20040;-46
2023/04/06 06:30:42;;;;;;;48.58;24.48;;;;;;;11.85;48.96;101607.56;5080282;28;20040;-48
2023/04/06 06:33:07;;;;;;;52.55;25.45;;;;;;;11.83;49.17;101616.25;5086403;28;20032;-46
2023/04/06 06:35:32;;;;;;;48.80;25.65;;;;;;;11.84;49.15;101617.97;5085006;28;20040;-47
2023/04/06 06:37:58;;;;;;;46.10;24.40;;;;;;;11.98;48.97;101619.16;5080143;28;20054;-46
2023/04/06 06:40:23;;;;;;;49.10;25.73;;;;;;;11.96;49.70;101619.09;5083658;28;20490;-48
2023/04/06 06:42:49;;;;;;;51.58;25.40;;;;;;;12.10;49.17;101609.81;5080585;28;20024;-48
2023/04/06 06:45:15;;;;;;;52.72;24.98;;;;;;;12.25;49.00;101610.97;5083550;28;20383;-44
2023/04/06 06:47:41;;;;;;;47.88;25.65;;;;;;;12.12;49.17;101613.34;5061881;28;20127;-46
2023/04/06 06:50:06;;;;;;;51.00;25.63;;;;;;;12.33;49.11;101610.22;5084916;28;20115;-46
2023/04/06 06:52:32;;;;;;;48.33;25.30;;;;;;;12.30;48.93;101609.31;5065328;28;20059;-45
2023/04/06 06:54:57;;;;;;;53.30;26.15;;;;;;;12.45;48.84;101610.44;5080748;28;20028;-42
2023/04/06 06:57:22;;;;;;;50.13;25.90;;;;;;;12.34;49.05;101605.88;5084492;28;20078;-43
2023/04/06 06:59:48;;;;;;;50.42;25.48;;;;;;;12.40;48.85;101606.88;5080999;28;20036;-48
2023/04/06 07:02:13;;;;;;;50.00;26.00;;;;;;;12.47;48.96;101600.00;5086199;28;20047;-44
2023/04/06 07:04:38;;;;;;;48.50;24.95;;;;;;;12.55;49.05;101601.91;5080619;28;20116;-45
2023/04/06 07:07:03;;;;;;;46.75;25.15;;;;;;;12.67;48.89;101596.00;5083282;28;20053;-47
2023/04/06 07:09:29;;;;;;;45.65;24.25;;;;;;;12.76;49.27;101596.13;5083393;28;20057;-47
2023/04/06 07:11:56;;;;;;;52.63;25.75;;;;;;;12.71;48.97;101596.91;5080354;28;20024;-50
2023/04/06 07:14:21;;;;;;;46.25;25.17;;;;;;;12.65;49.60;101594.22;5083811;28;20615;-46
2023/04/06 07:16:48;;;;;;;50.75;25.27;;;;;;;12.65;49.95;101596.81;5079296;28;20043;-46
2023/04/06 07:19:14;;;;;;;49.22;25.75;;;;;;;12.84;49.83;101594.53;5083849;28;20028;-46
2023/04/06 07:21:39;;;;;;;48.47;25.67;;;;;;;12.90;49.88;101594.63;5061400;28;20347;-44
2023/04/06 07:24:04;;;;;;;49.60;25.40;;;;;;;13.07;49.79;101589.63;5083250;28;20032;-48
2023/04/06 07:26:30;;;;;;;46.40;25.27;;;;;;;13.19;49.81;101592.47;5083580;28;20047;-43
2023/04/06 07:28:55;;;;;;;46.60;25.15;;;;;;;13.39;49.49;101579.66;5079286;28;20030;-46
2023/04/06 07:31:20;;;;;;;51.45;25.15;;;;;;;13.38;49.73;101580.50;5082576;28;20054;-44
2023/04/06 07:33:46;;;;;;;43.70;24.98;;;;;;;13.50;49.57;101577.16;5078826;28;20501;-44
2023/04/06 07:36:12;;;;;;;49.30;24.55;;;;;;;13.42;50.13;101577.03;5082552;28;20028;-45
2023/04/06 07:38:37;;;;;;;44.90;24.38;;;;;;;13.59;49.75;101580.78;5079632;28;20050;-44
2023/04/06 07:41:03;;;;;;;49.25;24.52;;;;;;;13.54;50.79;101578.97;5082310;28;20135;-45
2023/04/06 07:43:30;;;;;;;45.78;25.30;;;;;;;13.45;51.31;101578.84;5082404;28;20060;-44
2023/04/06 07:45:57;;;;;;;46.38;24.90;;;;;;;13.63;51.32;101579.97;5079109;28;20032;-44
2023/04/06 07:48:22;;;;;;;48.30;25.38;;;;;;;13.56;52.22;101578.13;5082479;28;20128;-46
2023/04/06 07:50:47;;;;;;;50.75;26.25;;;;;;;13.39;53.34;101574.41;5078385;28;20531;-44
2023/04/06 07:53:13;;;;;;;46.63;25.15;;;;;;;13.65;52.92;101574.75;5083642;28;20028;-43
2023/04/06 07:55:38;;;;;;;44.20;24.48;;;;;;;13.59;54.01;101572.94;5080110;28;20032;-47
2023/04/06 07:58:03;;;;;;;37.63;21.05;;;;;;;13.33;54.80;101574.31;5082883;28;20040;-44
2023/04/06 08:00:29;;;;;;;37.58;21.23;;;;;;;13.62;54.37;101574.69;5082502;28;20162;-46
2023/04/06 08:02:55;;;;;;;34.30;20.20;;;;;;;13.63;54.08;101574.72;5079824;28;20032;-45
2023/04/06 08:05:20;;;;;;;35.42;21.13;;;;;;;13.60;53.55;101579.06;5082720;28;20071;-46
2023/04/06 08:07:46;;;;;;;36.22;21.30;;;;;;;13.47;54.56;101579.75;5078540;28;20058;-45
2023/04/06 08:10:11;;;;;;;39.38;21.00;;;;;;;13.71;54.13;101574.81;5083110;28;20084;-47
2023/04/06 08:12:36;;;;;;;38.75;21.65;;;;;;;13.79;54.21;101586.25;5078947;28;20525;-48
2023/04/06 08:15:03;;;;;;;38.20;22.40;;;;;;;13.72;54.71;101580.03;5083141;28;20074;-45
2023/04/06 08:17:30;;;;;;;39.78;22.75;;;;;;;13.85;54.52;101588.94;5082498;28;20042;-43
2023/04/06 08:19:55;;;;;;;40.17;22.63;;;;;;;13.72;55.78;101587.91;5078908;28;20520;-46
2023/04/06 08:22:20;;;;;;;40.97;23.25;;;;;;;13.56;56.00;101587.72;5082106;28;20032;-46
2023/04/06 08:24:46;;;;;;;42.83;24.02;;;;;;;13.62;56.01;101585.16;5078335;28;20139;-44
2023/04/06 08:27:13;;;;;;;45.25;25.20;;;;;;;13.72;56.23;101592.31;5081457;28;20032;-44
2023/04/06 08:29:38;;;;;;;45.05;25.52;;;;;;;13.71;55.73;101594.03;5079208;28;20406;-47
2023/04/06 08:32:05;;;;;;;42.88;23.80;;;;;;;13.65;56.09;101586.09;5082986;28;20024;-43
2023/04/06 08:34:31;;;;;;;44.40;25.70;;;;;;;13.78;56.37;101587.97;5081968;28;20079;-47
2023/04/06 08:36:57;;;;;;;44.42;26.58;;;;;;;13.72;56.83;101590.53;5078097;28;20043;-48
2023/04/06 08:39:25;;;;;;;43.45;25.75;;;;;;;13.91;56.22;101585.50;5081908;28;20406;-45
2023/04/06 08:41:52;;;;;;;43.25;25.88;;;;;;;13.85;56.56;101582.81;5078028;28;20636;-46
2023/04/06 08:44:18;;;;;;;40.22;24.85;;;;;;;14.13;56.11;101587.50;5081966;28;20055;-46
2023/04/06 08:46:43;;;;;;;43.53;24.55;;;;;;;13.92;56.45;101576.78;5077514;28;20627;-46
2023/04/06 08:49:09;;;;;;;37.28;22.75;;;;;;;13.82;56.74;101576.69;5083209;28;20122;-48
2023/04/06 08:51:37;;;;;;;37.40;20.88;;;;;;;13.94;56.39;101583.81;5079010;28;20036;-43
2023/04/06 08:54:02;;;;;;;34.08;19.45;;;;;;;13.94;56.66;101578.56;5083325;28;20028;-44
2023/04/06 08:56:28;;;;;;;37.25;19.92;;;;;;;13.87;57.33;101578.47;5086005;28;20124;-43
2023/04/06 08:58:55;;;;;;;28.15;16.38;;;;;;;13.65;57.67;101585.22;5080605;28;20036;-48
2023/04/06 09:01:23;;;;;;;31.90;16.05;;;;;;;13.59;58.12;101586.03;5065556;28;20025;-46
2023/04/06 09:03:50;;;;;;;27.65;15.50;;;;;;;13.51;58.11;101582.41;5079277;28;20043;-44
2023/04/06 09:06:15;;;;;;;27.73;14.43;;;;;;;13.71;57.28;101580.94;5063322;28;20040;-45
2023/04/06 09:08:41;;;;;;;28.02;14.35;;;;;;;13.70;56.77;101581.78;5077526;28;20028;-47
2023/04/06 09:11:07;;;;;;;28.60;15.70;;;;;;;13.65;57.98;101578.25;5081448;28;20039;-45
2023/04/06 09:13:54;;;;;;;24.63;13.77;;;;;;;13.71;57.43;101582.66;5083996;28;20039;-45
2023/04/06 09:16:20;;;;;;;24.52;14.30;;;;;;;13.65;57.23;101579.97;5082235;28;20036;-47
2023/04/06 09:18:46;;;;;;;24.67;14.00;;;;;;;13.91;57.19;101569.78;5082061;28;20060;-45
2023/04/06 09:21:12;;;;;;;25.92;14.23;;;;;;;14.12;56.19;101576.13;5085613;28;20044;-45
2023/04/06 09:23:38;;;;;;;23.77;12.55;;;;;;;14.18;56.50;101575.31;5082642;28;20627;-45
2023/04/06 09:26:12;;;;;;;23.55;13.07;;;;;;;14.10;56.68;101574.34;5086045;28;20030;-44
2023/04/06 09:28:57;;;;;;;24.08;12.25;;;;;;;14.33;56.28;101580.72;5080975;28;20040;-42
2023/04/06 09:31:32;;;;;;;19.70;11.30;;;;;;;14.18;56.46;101580.56;5085329;28;20028;-43
2023/04/06 09:33:58;;;;;;;20.40;10.80;;;;;;;13.95;57.13;101568.97;5081551;28;20039;-43
2023/04/06 09:36:31;;;;;;;22.90;11.15;;;;;;;14.10;56.84;101576.97;5084844;28;20398;-44
2023/04/06 09:38:59;;;;;;;18.25;10.45;;;;;;;13.68;57.04;101572.13;5082341;28;20538;-45
2023/04/06 09:41:30;;;;;;;17.98;9.70;;;;;;;13.60;57.86;101571.19;5085290;28;20028;-42
2023/04/06 09:44:11;;;;;;;17.25;10.15;;;;;;;13.60;58.07;101565.94;5081714;28;20063;-49
2023/04/06 09:46:42;;;;;;;20.42;10.80;;;;;;;13.33;59.76;101569.97;5085043;28;20040;-43
2023/04/06 09:49:09;;;;;;;19.02;9.77;;;;;;;13.51;59.34;101571.06;5079798;28;20092;-43
2023/04/06 09:51:39;;;;;;;16.88;9.88;;;;;;;13.49;59.02;101557.94;5081422;28;20032;-46
2023/04/06 09:54:06;;;;;;;19.58;10.50;;;;;;;13.67;59.28;101560.78;5067142;28;20505;-44
2023/04/06 09:56:58;;;;;;;17.75;10.25;;;;;;;13.78;59.61;101553.06;5084729;28;20618;-44
2023/04/06 09:59:42;;;;;;;16.88;9.63;;;;;;;13.60;60.17;101556.31;5066850;28;20028;-43
2023/04/06 10:02:17;;;;;;;17.00;10.18;;;;;;;13.63;60.28;101555.50;5080411;28;20036;-44
2023/04/06 10:04:58;;;;;;;17.58;10.48;;;;;;;13.51;60.72;101556.22;5079994;28;20077;-49
2023/04/06 10:07:25;;;;;;;20.42;11.32;;;;;;;13.44;60.77;101549.16;5066448;28;20056;-44
2023/04/06 10:09:54;;;;;;;19.98;11.90;;;;;;;13.63;59.79;101555.50;5080754;28;20056;-43
2023/04/06 10:12:19;;;;;;;18.17;10.98;;;;;;;12.90;61.89;101554.50;5067891;28;20035;-47
2023/04/06 10:14:45;;;;;;;21.08;12.18;;;;;;;13.48;60.71;101550.09;5082302;28;20036;-46
2023/04/06 10:17:11;;;;;;;18.98;11.63;;;;;;;13.27;61.74;101548.94;5085243;28;20721;-51
2023/04/06 10:19:49;;;;;;;17.63;10.95;;;;;;;13.56;61.26;101548.41;5064380;28;20028;-43
2023/04/06 10:22:23;;;;;;;18.98;11.32;;;;;;;13.60;61.35;101540.59;5086129;28;20478;-44
2023/04/06 10:24:49;;;;;;;17.27;10.90;;;;;;;13.38;61.50;101535.97;5062782;28;20039;-41
2023/04/06 10:27:14;;;;;;;18.83;10.95;;;;;;;13.60;61.58;101540.59;5083991;28;20039;-43
2023/04/06 10:29:51;;;;;;;18.48;11.20;;;;;;;13.28;62.31;101541.97;5080723;28;20024;-47
2023/04/06 10:32:16;;;;;;;18.73;11.40;;;;;;;13.38;62.12;101530.75;5084562;28;20135;-42
2023/04/06 10:34:41;;;;;;;21.35;11.80;;;;;;;13.36;62.43;101528.09;5081805;28;20472;-46
2023/04/06 10:37:15;;;;;;;18.70;11.68;;;;;;;13.43;62.24;101526.44;5084333;28;20028;-43
2023/04/06 10:39:54;;;;;;;18.63;12.57;;;;;;;13.29;62.75;101523.66;5079923;28;20036;-46
2023/04/06 10:42:23;;;;;;;17.65;11.45;;;;;;;13.52;62.34;101517.81;5084225;28;20020;-44
2023/04/06 10:44:49;;;;;;;17.35;11.50;;;;;;;13.34;63.23;101518.47;5080700;28;20032;-43
2023/04/06 10:47:20;;;;;;;18.08;11.80;;;;;;;13.30;63.53;101517.53;5083715;28;20046;-45
2023/04/06 10:49:45;;;;;;;16.70;11.27;;;;;;;13.57;63.35;101516.13;5080100;28;20572;-43
2023/04/06 10:52:11;;;;;;;16.33;11.02;;;;;;;13.32;63.31;101510.59;5083905;28;20039;-44
2023/04/06 10:54:41;;;;;;;19.80;11.50;;;;;;;13.47;62.83;101511.66;5081618;28;20038;-42
2023/04/06 10:57:07;;;;;;;15.88;10.75;;;;;;;13.36;63.44;101515.00;5087060;28;20046;-48
2023/04/06 10:59:32;;;;;;;17.50;11.38;;;;;;;13.36;62.97;101507.13;5090163;28;20028;-44
2023/04/06 11:01:57;;;;;;;18.20;11.23;;;;;;;13.49;63.19;101502.03;5086983;28;20059;-45
2023/04/06 11:04:25;;;;;;;17.98;11.73;;;;;;;13.48;63.13;101501.16;5091069;28;20032;-44
2023/04/06 11:06:50;;;;;;;20.13;11.68;;;;;;;13.43;63.30;101497.63;5085607;28;20088;-43